sensor_id;sensor_type;location;lat;lon;timestamp;temperature;humidity
53294;DHT22;39181;53.440;5.644;2023-03-31T00:02:17;9.30;99.90
53294;DHT22;39181;53.440;5.644;2023-03-31T00:04:47;9.30;99.90
53294;DHT22;39181;53.440;5.644;2023-03-31T00:07:20;9.30;99.90
53294;DHT22;39181;53.440;5.644;2023-03-31T00:09:49;9.30;99.90
53294;DHT22;39181;53.440;5.644;2023-03-31T00:12:20;9.30;99.90
53294;DHT22;39181;53.440;5.644;2023-03-31T00:14:46;9.30;99.90
53294;DHT22;39181;53.440;5.644;2023-03-31T00:17:12;9.30;99.90
53294;DHT22;39181;53.440;5.644;2023-03-31T00:19:38;9.20;99.90
53294;DHT22;39181;53.440;5.644;2023-03-31T00:22:04;9.20;99.90
53294;DHT22;39181;53.440;5.644;2023-03-31T00:24:31;9.20;99.90
53294;DHT22;39181;53.440;5.644;2023-03-31T00:27:01;9.20;99.90
53294;DHT22;39181;53.440;5.644;2023-03-31T00:29:27;9.10;99.90
53294;DHT22;39181;53.440;5.644;2023-03-31T00:31:54;9.10;99.90
53294;DHT22;39181;53.440;5.644;2023-03-31T00:34:20;9.00;99.90
53294;DHT22;39181;53.440;5.644;2023-03-31T00:36:46;9.00;99.90
53294;DHT22;39181;53.440;5.644;2023-03-31T00:39:16;9.00;99.90
53294;DHT22;39181;53.440;5.644;2023-03-31T00:41:42;9.00;99.90
53294;DHT22;39181;53.440;5.644;2023-03-31T00:44:16;9.00;99.90
53294;DHT22;39181;53.440;5.644;2023-03-31T00:47:05;9.00;99.90
53294;DHT22;39181;53.440;5.644;2023-03-31T00:49:39;8.90;99.90
53294;DHT22;39181;53.440;5.644;2023-03-31T00:52:09;9.00;99.90
53294;DHT22;39181;53.440;5.644;2023-03-31T00:54:38;9.00;99.90
53294;DHT22;39181;53.440;5.644;2023-03-31T00:57:06;9.00;99.90
53294;DHT22;39181;53.440;5.644;2023-03-31T00:59:36;9.00;99.90
53294;DHT22;39181;53.440;5.644;2023-03-31T01:02:03;9.00;99.90
53294;DHT22;39181;53.440;5.644;2023-03-31T01:04:40;9.00;99.90
53294;DHT22;39181;53.440;5.644;2023-03-31T01:07:23;9.00;99.90
53294;DHT22;39181;53.440;5.644;2023-03-31T01:09:52;9.00;99.90
53294;DHT22;39181;53.440;5.644;2023-03-31T01:12:20;9.00;99.90
53294;DHT22;39181;53.440;5.644;2023-03-31T01:14:48;8.90;99.90
53294;DHT22;39181;53.440;5.644;2023-03-31T01:17:14;9.00;99.90
53294;DHT22;39181;53.440;5.644;2023-03-31T01:19:51;9.00;99.90
53294;DHT22;39181;53.440;5.644;2023-03-31T01:22:50;9.10;99.90
53294;DHT22;39181;53.440;5.644;2023-03-31T01:26:22;9.10;99.90
53294;DHT22;39181;53.440;5.644;2023-03-31T01:32:12;9.20;99.90
53294;DHT22;39181;53.440;5.644;2023-03-31T01:40:03;9.30;99.90
53294;DHT22;39181;53.440;5.644;2023-03-31T01:42:52;9.30;99.90
53294;DHT22;39181;53.440;5.644;2023-03-31T01:47:56;9.20;99.90
53294;DHT22;39181;53.440;5.644;2023-03-31T01:50:29;9.20;99.90
53294;DHT22;39181;53.440;5.644;2023-03-31T01:53:07;9.10;99.90
53294;DHT22;39181;53.440;5.644;2023-03-31T01:55:45;9.10;99.90
53294;DHT22;39181;53.440;5.644;2023-03-31T01:58:36;9.00;99.90
53294;DHT22;39181;53.440;5.644;2023-03-31T02:04:02;8.90;99.90
53294;DHT22;39181;53.440;5.644;2023-03-31T02:06:34;8.90;99.90
53294;DHT22;39181;53.440;5.644;2023-03-31T02:09:05;8.90;99.90
53294;DHT22;39181;53.440;5.644;2023-03-31T02:11:33;8.90;99.90
53294;DHT22;39181;53.440;5.644;2023-03-31T02:14:01;8.80;99.90
53294;DHT22;39181;53.440;5.644;2023-03-31T02:16:29;8.80;99.90
53294;DHT22;39181;53.440;5.644;2023-03-31T02:18:58;8.80;99.90
53294;DHT22;39181;53.440;5.644;2023-03-31T02:21:34;8.80;99.90
53294;DHT22;39181;53.440;5.644;2023-03-31T02:24:06;8.90;99.90
53294;DHT22;39181;53.440;5.644;2023-03-31T02:26:36;8.90;99.90
53294;DHT22;39181;53.440;5.644;2023-03-31T02:29:04;8.80;99.90
53294;DHT22;39181;53.440;5.644;2023-03-31T02:31:48;8.90;99.90
53294;DHT22;39181;53.440;5.644;2023-03-31T02:34:16;8.80;99.90
53294;DHT22;39181;53.440;5.644;2023-03-31T02:36:42;8.90;99.90
53294;DHT22;39181;53.440;5.644;2023-03-31T02:39:13;8.90;99.90
53294;DHT22;39181;53.440;5.644;2023-03-31T02:41:41;8.90;99.90
53294;DHT22;39181;53.440;5.644;2023-03-31T02:44:08;8.90;99.90
53294;DHT22;39181;53.440;5.644;2023-03-31T02:46:34;8.90;99.90
53294;DHT22;39181;53.440;5.644;2023-03-31T02:49:02;8.90;99.90
53294;DHT22;39181;53.440;5.644;2023-03-31T02:51:57;8.80;99.90
53294;DHT22;39181;53.440;5.644;2023-03-31T02:55:09;8.90;99.90
53294;DHT22;39181;53.440;5.644;2023-03-31T03:11:45;8.90;99.90
53294;DHT22;39181;53.440;5.644;2023-03-31T03:17:06;9.00;99.90
53294;DHT22;39181;53.440;5.644;2023-03-31T03:19:33;9.00;99.90
53294;DHT22;39181;53.440;5.644;2023-03-31T03:21:59;8.90;99.90
53294;DHT22;39181;53.440;5.644;2023-03-31T03:24:25;9.00;99.90
53294;DHT22;39181;53.440;5.644;2023-03-31T03:26:54;9.00;99.90
53294;DHT22;39181;53.440;5.644;2023-03-31T03:29:20;9.00;99.90
53294;DHT22;39181;53.440;5.644;2023-03-31T03:31:46;9.00;99.90
53294;DHT22;39181;53.440;5.644;2023-03-31T03:34:11;9.00;99.90
53294;DHT22;39181;53.440;5.644;2023-03-31T03:36:38;9.10;99.90
53294;DHT22;39181;53.440;5.644;2023-03-31T03:39:04;9.00;99.90
53294;DHT22;39181;53.440;5.644;2023-03-31T03:41:30;9.00;99.90
53294;DHT22;39181;53.440;5.644;2023-03-31T03:44:00;9.10;99.90
53294;DHT22;39181;53.440;5.644;2023-03-31T03:46:26;9.10;99.90
53294;DHT22;39181;53.440;5.644;2023-03-31T03:48:52;9.10;99.90
53294;DHT22;39181;53.440;5.644;2023-03-31T03:51:18;9.10;99.90
53294;DHT22;39181;53.440;5.644;2023-03-31T03:53:44;9.10;99.90
53294;DHT22;39181;53.440;5.644;2023-03-31T03:56:09;9.10;99.90
53294;DHT22;39181;53.440;5.644;2023-03-31T03:58:35;9.10;99.90
53294;DHT22;39181;53.440;5.644;2023-03-31T04:01:01;9.10;99.90
53294;DHT22;39181;53.440;5.644;2023-03-31T04:03:26;9.10;99.90
53294;DHT22;39181;53.440;5.644;2023-03-31T04:05:52;9.10;99.90
53294;DHT22;39181;53.440;5.644;2023-03-31T04:08:18;9.10;99.90
53294;DHT22;39181;53.440;5.644;2023-03-31T04:10:48;9.10;99.90
53294;DHT22;39181;53.440;5.644;2023-03-31T04:13:19;9.10;99.90
53294;DHT22;39181;53.440;5.644;2023-03-31T04:15:45;9.10;99.90
53294;DHT22;39181;53.440;5.644;2023-03-31T04:18:11;9.10;99.90
53294;DHT22;39181;53.440;5.644;2023-03-31T04:20:50;9.10;99.90
53294;DHT22;39181;53.440;5.644;2023-03-31T04:23:38;9.10;99.90
53294;DHT22;39181;53.440;5.644;2023-03-31T04:26:11;9.10;99.90
53294;DHT22;39181;53.440;5.644;2023-03-31T04:28:38;9.00;99.90
53294;DHT22;39181;53.440;5.644;2023-03-31T04:31:09;9.10;99.90
53294;DHT22;39181;53.440;5.644;2023-03-31T04:33:35;9.10;99.90
53294;DHT22;39181;53.440;5.644;2023-03-31T04:36:07;9.10;99.90
53294;DHT22;39181;53.440;5.644;2023-03-31T04:38:46;9.10;99.90
53294;DHT22;39181;53.440;5.644;2023-03-31T04:41:18;9.10;99.90
53294;DHT22;39181;53.440;5.644;2023-03-31T04:43:44;9.10;99.90
53294;DHT22;39181;53.440;5.644;2023-03-31T04:46:09;9.10;99.90
53294;DHT22;39181;53.440;5.644;2023-03-31T04:48:35;9.10;99.90
53294;DHT22;39181;53.440;5.644;2023-03-31T04:51:01;9.10;99.90
53294;DHT22;39181;53.440;5.644;2023-03-31T04:53:27;9.10;99.90
53294;DHT22;39181;53.440;5.644;2023-03-31T04:55:53;9.10;99.90
53294;DHT22;39181;53.440;5.644;2023-03-31T04:58:19;9.10;99.90
53294;DHT22;39181;53.440;5.644;2023-03-31T05:00:44;9.10;99.90
53294;DHT22;39181;53.440;5.644;2023-03-31T05:03:10;9.10;99.90
53294;DHT22;39181;53.440;5.644;2023-03-31T05:05:36;9.10;99.90
53294;DHT22;39181;53.440;5.644;2023-03-31T05:08:02;9.00;99.90
53294;DHT22;39181;53.440;5.644;2023-03-31T05:10:28;9.00;99.90
53294;DHT22;39181;53.440;5.644;2023-03-31T05:12:55;9.10;99.90
53294;DHT22;39181;53.440;5.644;2023-03-31T05:15:21;9.10;99.90
53294;DHT22;39181;53.440;5.644;2023-03-31T05:17:49;9.10;99.90
53294;DHT22;39181;53.440;5.644;2023-03-31T05:20:14;9.10;99.90
53294;DHT22;39181;53.440;5.644;2023-03-31T05:22:44;9.10;99.90
53294;DHT22;39181;53.440;5.644;2023-03-31T05:25:11;9.10;99.90
53294;DHT22;39181;53.440;5.644;2023-03-31T05:27:38;9.10;99.90
53294;DHT22;39181;53.440;5.644;2023-03-31T05:30:05;9.10;99.90
53294;DHT22;39181;53.440;5.644;2023-03-31T05:32:32;9.10;99.90
53294;DHT22;39181;53.440;5.644;2023-03-31T05:34:58;9.10;99.90
53294;DHT22;39181;53.440;5.644;2023-03-31T05:37:24;9.10;99.90
53294;DHT22;39181;53.440;5.644;2023-03-31T05:39:52;9.10;99.90
53294;DHT22;39181;53.440;5.644;2023-03-31T05:42:18;9.10;99.90
53294;DHT22;39181;53.440;5.644;2023-03-31T05:44:44;9.10;99.90
53294;DHT22;39181;53.440;5.644;2023-03-31T05:47:11;9.10;99.90
53294;DHT22;39181;53.440;5.644;2023-03-31T05:49:39;9.10;99.90
53294;DHT22;39181;53.440;5.644;2023-03-31T05:52:06;9.10;99.90
53294;DHT22;39181;53.440;5.644;2023-03-31T05:54:32;9.10;99.90
53294;DHT22;39181;53.440;5.644;2023-03-31T05:56:58;9.10;99.90
53294;DHT22;39181;53.440;5.644;2023-03-31T05:59:23;9.10;99.90
53294;DHT22;39181;53.440;5.644;2023-03-31T06:01:49;9.20;99.90
53294;DHT22;39181;53.440;5.644;2023-03-31T06:04:15;9.20;99.90
53294;DHT22;39181;53.440;5.644;2023-03-31T06:06:40;9.20;99.90
53294;DHT22;39181;53.440;5.644;2023-03-31T06:09:07;9.20;99.90
53294;DHT22;39181;53.440;5.644;2023-03-31T06:11:33;9.20;99.90
53294;DHT22;39181;53.440;5.644;2023-03-31T06:13:58;9.20;99.90
53294;DHT22;39181;53.440;5.644;2023-03-31T06:16:27;9.30;99.90
53294;DHT22;39181;53.440;5.644;2023-03-31T06:18:53;9.30;99.90
53294;DHT22;39181;53.440;5.644;2023-03-31T06:21:20;9.30;99.90
53294;DHT22;39181;53.440;5.644;2023-03-31T06:23:46;9.30;99.90
53294;DHT22;39181;53.440;5.644;2023-03-31T06:26:14;9.30;99.90
53294;DHT22;39181;53.440;5.644;2023-03-31T06:28:41;9.30;99.90
53294;DHT22;39181;53.440;5.644;2023-03-31T06:31:15;9.40;99.90
53294;DHT22;39181;53.440;5.644;2023-03-31T06:33:42;9.30;99.90
53294;DHT22;39181;53.440;5.644;2023-03-31T06:36:09;9.40;99.90
53294;DHT22;39181;53.440;5.644;2023-03-31T06:38:36;9.40;99.90
53294;DHT22;39181;53.440;5.644;2023-03-31T06:41:06;9.50;99.90
53294;DHT22;39181;53.440;5.644;2023-03-31T06:43:33;9.50;99.90
53294;DHT22;39181;53.440;5.644;2023-03-31T06:45:58;9.50;99.90
53294;DHT22;39181;53.440;5.644;2023-03-31T06:48:25;9.50;99.90
53294;DHT22;39181;53.440;5.644;2023-03-31T06:50:55;9.50;99.90
53294;DHT22;39181;53.440;5.644;2023-03-31T06:53:23;9.50;99.90
53294;DHT22;39181;53.440;5.644;2023-03-31T06:55:48;9.50;99.90
53294;DHT22;39181;53.440;5.644;2023-03-31T06:58:14;9.50;99.90
53294;DHT22;39181;53.440;5.644;2023-03-31T07:00:40;9.60;99.90
53294;DHT22;39181;53.440;5.644;2023-03-31T07:03:05;9.50;99.90
53294;DHT22;39181;53.440;5.644;2023-03-31T07:05:33;9.60;99.90
53294;DHT22;39181;53.440;5.644;2023-03-31T07:07:59;9.60;99.90
53294;DHT22;39181;53.440;5.644;2023-03-31T07:10:27;9.60;99.90
53294;DHT22;39181;53.440;5.644;2023-03-31T07:12:53;9.70;99.90
53294;DHT22;39181;53.440;5.644;2023-03-31T07:15:21;9.60;99.90
53294;DHT22;39181;53.440;5.644;2023-03-31T07:17:47;9.70;99.90
53294;DHT22;39181;53.440;5.644;2023-03-31T07:20:16;9.70;99.90
53294;DHT22;39181;53.440;5.644;2023-03-31T07:22:43;9.70;99.90
53294;DHT22;39181;53.440;5.644;2023-03-31T07:25:10;9.70;99.90
53294;DHT22;39181;53.440;5.644;2023-03-31T07:27:37;9.70;99.90
53294;DHT22;39181;53.440;5.644;2023-03-31T07:30:04;9.70;99.90
53294;DHT22;39181;53.440;5.644;2023-03-31T07:32:30;9.80;99.90
53294;DHT22;39181;53.440;5.644;2023-03-31T07:34:57;9.80;99.90
53294;DHT22;39181;53.440;5.644;2023-03-31T07:37:24;9.80;99.90
53294;DHT22;39181;53.440;5.644;2023-03-31T07:39:50;9.80;99.90
53294;DHT22;39181;53.440;5.644;2023-03-31T07:42:15;9.80;99.90
53294;DHT22;39181;53.440;5.644;2023-03-31T07:44:41;9.80;99.90
53294;DHT22;39181;53.440;5.644;2023-03-31T07:47:07;9.80;99.90
53294;DHT22;39181;53.440;5.644;2023-03-31T07:49:33;9.90;99.90
53294;DHT22;39181;53.440;5.644;2023-03-31T07:52:00;9.90;99.90
53294;DHT22;39181;53.440;5.644;2023-03-31T07:54:26;9.90;99.90
53294;DHT22;39181;53.440;5.644;2023-03-31T07:56:52;9.90;99.90
53294;DHT22;39181;53.440;5.644;2023-03-31T07:59:18;10.00;99.90
53294;DHT22;39181;53.440;5.644;2023-03-31T08:01:45;10.00;99.90
53294;DHT22;39181;53.440;5.644;2023-03-31T08:04:11;10.00;99.90
53294;DHT22;39181;53.440;5.644;2023-03-31T08:06:38;10.00;99.90
53294;DHT22;39181;53.440;5.644;2023-03-31T08:09:06;10.00;99.90
53294;DHT22;39181;53.440;5.644;2023-03-31T08:11:32;10.10;99.90
53294;DHT22;39181;53.440;5.644;2023-03-31T08:13:58;10.10;99.90
53294;DHT22;39181;53.440;5.644;2023-03-31T08:16:23;10.10;99.90
53294;DHT22;39181;53.440;5.644;2023-03-31T08:18:49;10.10;99.90
53294;DHT22;39181;53.440;5.644;2023-03-31T08:21:15;10.10;99.90
53294;DHT22;39181;53.440;5.644;2023-03-31T08:23:40;10.20;99.90
53294;DHT22;39181;53.440;5.644;2023-03-31T08:26:17;10.20;99.90
53294;DHT22;39181;53.440;5.644;2023-03-31T08:28:44;10.10;99.90
53294;DHT22;39181;53.440;5.644;2023-03-31T08:31:10;10.10;99.90
53294;DHT22;39181;53.440;5.644;2023-03-31T08:33:37;10.00;99.90
53294;DHT22;39181;53.440;5.644;2023-03-31T08:36:07;10.00;99.90
53294;DHT22;39181;53.440;5.644;2023-03-31T08:38:38;9.90;99.90
53294;DHT22;39181;53.440;5.644;2023-03-31T08:41:11;9.90;99.90
53294;DHT22;39181;53.440;5.644;2023-03-31T08:43:42;9.90;99.90
53294;DHT22;39181;53.440;5.644;2023-03-31T08:46:14;9.80;99.90
53294;DHT22;39181;53.440;5.644;2023-03-31T08:48:45;9.90;99.90
53294;DHT22;39181;53.440;5.644;2023-03-31T08:51:31;9.80;99.90
53294;DHT22;39181;53.440;5.644;2023-03-31T08:54:04;9.90;99.90
53294;DHT22;39181;53.440;5.644;2023-03-31T08:56:34;9.90;99.90
53294;DHT22;39181;53.440;5.644;2023-03-31T08:59:05;10.00;99.90
53294;DHT22;39181;53.440;5.644;2023-03-31T09:02:11;10.00;99.90
53294;DHT22;39181;53.440;5.644;2023-03-31T09:04:49;10.10;99.90
53294;DHT22;39181;53.440;5.644;2023-03-31T09:17:52;10.30;99.90
53294;DHT22;39181;53.440;5.644;2023-03-31T09:20:33;10.40;99.90
53294;DHT22;39181;53.440;5.644;2023-03-31T09:23:22;10.50;99.90
53294;DHT22;39181;53.440;5.644;2023-03-31T09:25:50;10.60;99.90
53294;DHT22;39181;53.440;5.644;2023-03-31T09:28:21;10.70;99.90
53294;DHT22;39181;53.440;5.644;2023-03-31T09:30:48;10.70;99.90
53294;DHT22;39181;53.440;5.644;2023-03-31T09:33:27;10.80;99.90
53294;DHT22;39181;53.440;5.644;2023-03-31T09:35:57;10.80;99.90
53294;DHT22;39181;53.440;5.644;2023-03-31T09:38:23;10.70;99.90
53294;DHT22;39181;53.440;5.644;2023-03-31T09:40:56;10.80;99.90
53294;DHT22;39181;53.440;5.644;2023-03-31T09:43:28;10.80;99.90
53294;DHT22;39181;53.440;5.644;2023-03-31T09:45:54;10.90;99.90
53294;DHT22;39181;53.440;5.644;2023-03-31T09:48:26;11.00;99.90
53294;DHT22;39181;53.440;5.644;2023-03-31T09:50:59;11.10;99.90
53294;DHT22;39181;53.440;5.644;2023-03-31T09:53:44;11.10;99.90
53294;DHT22;39181;53.440;5.644;2023-03-31T09:56:11;11.20;99.90
53294;DHT22;39181;53.440;5.644;2023-03-31T09:58:43;11.30;99.90
53294;DHT22;39181;53.440;5.644;2023-03-31T10:01:10;11.30;99.90
53294;DHT22;39181;53.440;5.644;2023-03-31T10:03:53;11.30;99.90
53294;DHT22;39181;53.440;5.644;2023-03-31T10:06:20;11.20;99.90
53294;DHT22;39181;53.440;5.644;2023-03-31T10:11:14;11.30;99.90
53294;DHT22;39181;53.440;5.644;2023-03-31T10:13:47;11.30;99.90
53294;DHT22;39181;53.440;5.644;2023-03-31T10:16:20;11.40;99.90
53294;DHT22;39181;53.440;5.644;2023-03-31T10:18:46;11.50;99.90
53294;DHT22;39181;53.440;5.644;2023-03-31T10:21:25;11.50;99.90
53294;DHT22;39181;53.440;5.644;2023-03-31T10:23:53;11.60;99.90
53294;DHT22;39181;53.440;5.644;2023-03-31T10:26:22;11.70;99.90
53294;DHT22;39181;53.440;5.644;2023-03-31T10:28:49;11.70;99.90
53294;DHT22;39181;53.440;5.644;2023-03-31T10:31:24;11.70;99.90
53294;DHT22;39181;53.440;5.644;2023-03-31T10:33:51;11.70;99.90
53294;DHT22;39181;53.440;5.644;2023-03-31T10:36:22;11.80;99.90
53294;DHT22;39181;53.440;5.644;2023-03-31T10:38:51;11.90;99.90
53294;DHT22;39181;53.440;5.644;2023-03-31T10:41:22;12.00;99.90
53294;DHT22;39181;53.440;5.644;2023-03-31T10:43:51;12.20;99.90
53294;DHT22;39181;53.440;5.644;2023-03-31T10:46:17;12.50;99.90
53294;DHT22;39181;53.440;5.644;2023-03-31T10:48:43;12.70;99.90
53294;DHT22;39181;53.440;5.644;2023-03-31T10:51:15;12.90;99.90
53294;DHT22;39181;53.440;5.644;2023-03-31T10:53:46;13.00;99.90
53294;DHT22;39181;53.440;5.644;2023-03-31T10:56:32;13.20;99.90
53294;DHT22;39181;53.440;5.644;2023-03-31T11:05:02;13.40;99.90
53294;DHT22;39181;53.440;5.644;2023-03-31T11:13:05;13.40;99.90
53294;DHT22;39181;53.440;5.644;2023-03-31T11:16:15;13.40;99.90
53294;DHT22;39181;53.440;5.644;2023-03-31T11:19:01;13.50;99.90
53294;DHT22;39181;53.440;5.644;2023-03-31T11:27:33;13.60;99.90
53294;DHT22;39181;53.440;5.644;2023-03-31T11:30:13;13.60;99.90
53294;DHT22;39181;53.440;5.644;2023-03-31T11:35:40;14.20;99.90
53294;DHT22;39181;53.440;5.644;2023-03-31T11:38:32;14.30;99.90
53294;DHT22;39181;53.440;5.644;2023-03-31T11:46:12;14.80;99.90
53294;DHT22;39181;53.440;5.644;2023-03-31T11:54:06;14.40;99.90
53294;DHT22;39181;53.440;5.644;2023-03-31T11:56:38;14.10;99.90
53294;DHT22;39181;53.440;5.644;2023-03-31T11:59:05;14.00;99.90
53294;DHT22;39181;53.440;5.644;2023-03-31T12:06:52;13.40;99.90
53294;DHT22;39181;53.440;5.644;2023-03-31T12:09:29;13.40;99.90
53294;DHT22;39181;53.440;5.644;2023-03-31T12:12:14;13.30;99.90
53294;DHT22;39181;53.440;5.644;2023-03-31T12:17:17;13.20;99.90
53294;DHT22;39181;53.440;5.644;2023-03-31T12:19:56;13.20;99.90
53294;DHT22;39181;53.440;5.644;2023-03-31T12:22:32;13.20;99.90
53294;DHT22;39181;53.440;5.644;2023-03-31T12:24:58;13.30;99.90
53294;DHT22;39181;53.440;5.644;2023-03-31T12:27:42;13.40;99.90
53294;DHT22;39181;53.440;5.644;2023-03-31T12:30:40;13.50;99.90
53294;DHT22;39181;53.440;5.644;2023-03-31T12:33:40;13.60;99.90
53294;DHT22;39181;53.440;5.644;2023-03-31T12:41:58;13.70;99.90
53294;DHT22;39181;53.440;5.644;2023-03-31T12:44:48;13.60;99.90
53294;DHT22;39181;53.440;5.644;2023-03-31T12:50:15;13.60;99.90
53294;DHT22;39181;53.440;5.644;2023-03-31T12:53:10;13.70;99.90
53294;DHT22;39181;53.440;5.644;2023-03-31T12:55:45;13.80;99.90
53294;DHT22;39181;53.440;5.644;2023-03-31T13:01:07;14.00;99.90
53294;DHT22;39181;53.440;5.644;2023-03-31T13:06:01;14.10;99.90
53294;DHT22;39181;53.440;5.644;2023-03-31T13:08:49;14.10;99.90
53294;DHT22;39181;53.440;5.644;2023-03-31T13:11:17;14.20;99.90
53294;DHT22;39181;53.440;5.644;2023-03-31T13:16:22;13.90;99.90
53294;DHT22;39181;53.440;5.644;2023-03-31T13:18:52;13.90;99.90
53294;DHT22;39181;53.440;5.644;2023-03-31T13:21:19;13.80;99.90
53294;DHT22;39181;53.440;5.644;2023-03-31T13:23:45;13.80;99.90
53294;DHT22;39181;53.440;5.644;2023-03-31T13:32:19;13.60;99.90
53294;DHT22;39181;53.440;5.644;2023-03-31T13:45:58;13.40;99.90
53294;DHT22;39181;53.440;5.644;2023-03-31T13:48:58;13.40;99.90
53294;DHT22;39181;53.440;5.644;2023-03-31T13:51:41;13.40;99.90
53294;DHT22;39181;53.440;5.644;2023-03-31T13:54:22;13.40;99.90
53294;DHT22;39181;53.440;5.644;2023-03-31T14:05:36;13.10;99.90
53294;DHT22;39181;53.440;5.644;2023-03-31T14:08:36;13.10;99.90
53294;DHT22;39181;53.440;5.644;2023-03-31T14:11:24;13.20;99.90
53294;DHT22;39181;53.440;5.644;2023-03-31T14:14:04;13.20;99.90
53294;DHT22;39181;53.440;5.644;2023-03-31T14:16:35;13.40;99.90
53294;DHT22;39181;53.440;5.644;2023-03-31T14:21:50;13.90;99.90
53294;DHT22;39181;53.440;5.644;2023-03-31T14:24:35;13.90;99.90
53294;DHT22;39181;53.440;5.644;2023-03-31T14:27:10;14.10;99.90
53294;DHT22;39181;53.440;5.644;2023-03-31T14:33:23;14.00;99.90
53294;DHT22;39181;53.440;5.644;2023-03-31T14:36:09;14.00;99.90
53294;DHT22;39181;53.440;5.644;2023-03-31T14:38:37;13.80;99.90
53294;DHT22;39181;53.440;5.644;2023-03-31T14:41:02;13.60;99.90
53294;DHT22;39181;53.440;5.644;2023-03-31T14:43:32;13.40;99.90
53294;DHT22;39181;53.440;5.644;2023-03-31T14:46:03;13.20;99.90
53294;DHT22;39181;53.440;5.644;2023-03-31T14:48:50;13.10;99.90
53294;DHT22;39181;53.440;5.644;2023-03-31T14:51:26;12.90;99.90
53294;DHT22;39181;53.440;5.644;2023-03-31T14:54:00;12.70;99.90
53294;DHT22;39181;53.440;5.644;2023-03-31T14:56:36;12.60;99.90
53294;DHT22;39181;53.440;5.644;2023-03-31T14:59:03;12.50;99.90
53294;DHT22;39181;53.440;5.644;2023-03-31T15:01:32;12.40;99.90
53294;DHT22;39181;53.440;5.644;2023-03-31T15:04:08;12.40;99.90
53294;DHT22;39181;53.440;5.644;2023-03-31T15:06:35;12.40;99.90
53294;DHT22;39181;53.440;5.644;2023-03-31T15:09:04;12.40;99.90
53294;DHT22;39181;53.440;5.644;2023-03-31T15:11:30;12.30;99.90
53294;DHT22;39181;53.440;5.644;2023-03-31T15:13:57;12.30;99.90
53294;DHT22;39181;53.440;5.644;2023-03-31T15:19:09;12.50;99.90
53294;DHT22;39181;53.440;5.644;2023-03-31T15:21:37;12.60;99.90
53294;DHT22;39181;53.440;5.644;2023-03-31T15:24:04;12.70;99.90
53294;DHT22;39181;53.440;5.644;2023-03-31T15:26:34;12.70;99.90
53294;DHT22;39181;53.440;5.644;2023-03-31T15:29:16;12.80;99.90
53294;DHT22;39181;53.440;5.644;2023-03-31T15:31:43;12.80;99.90
53294;DHT22;39181;53.440;5.644;2023-03-31T15:34:30;12.90;99.90
53294;DHT22;39181;53.440;5.644;2023-03-31T15:36:57;12.90;99.90
53294;DHT22;39181;53.440;5.644;2023-03-31T15:39:25;13.00;99.90
53294;DHT22;39181;53.440;5.644;2023-03-31T15:41:52;13.00;99.90
53294;DHT22;39181;53.440;5.644;2023-03-31T15:44:34;13.00;99.90
53294;DHT22;39181;53.440;5.644;2023-03-31T15:47:10;13.00;99.90
53294;DHT22;39181;53.440;5.644;2023-03-31T15:49:36;12.90;99.90
53294;DHT22;39181;53.440;5.644;2023-03-31T15:54:54;12.80;99.90
53294;DHT22;39181;53.440;5.644;2023-03-31T15:57:19;12.70;99.90
53294;DHT22;39181;53.440;5.644;2023-03-31T15:59:51;12.70;99.90
53294;DHT22;39181;53.440;5.644;2023-03-31T16:02:23;12.60;99.90
53294;DHT22;39181;53.440;5.644;2023-03-31T16:04:54;12.60;99.90
53294;DHT22;39181;53.440;5.644;2023-03-31T16:07:23;12.40;99.90
53294;DHT22;39181;53.440;5.644;2023-03-31T16:09:59;12.40;99.90
53294;DHT22;39181;53.440;5.644;2023-03-31T16:12:37;12.30;99.90
53294;DHT22;39181;53.440;5.644;2023-03-31T16:15:12;12.30;99.90
53294;DHT22;39181;53.440;5.644;2023-03-31T16:17:45;12.20;99.90
53294;DHT22;39181;53.440;5.644;2023-03-31T16:20:24;12.10;99.90
53294;DHT22;39181;53.440;5.644;2023-03-31T16:22:54;12.10;99.90
53294;DHT22;39181;53.440;5.644;2023-03-31T16:25:23;12.00;99.90
53294;DHT22;39181;53.440;5.644;2023-03-31T16:27:59;12.00;99.90
53294;DHT22;39181;53.440;5.644;2023-03-31T16:30:40;11.90;99.90
53294;DHT22;39181;53.440;5.644;2023-03-31T16:33:11;11.80;99.90
53294;DHT22;39181;53.440;5.644;2023-03-31T16:35:38;11.80;99.90
53294;DHT22;39181;53.440;5.644;2023-03-31T16:38:06;11.80;99.90
53294;DHT22;39181;53.440;5.644;2023-03-31T16:40:40;11.80;99.90
53294;DHT22;39181;53.440;5.644;2023-03-31T16:43:15;11.80;99.90
53294;DHT22;39181;53.440;5.644;2023-03-31T16:45:44;11.80;99.90
53294;DHT22;39181;53.440;5.644;2023-03-31T16:48:11;11.90;99.90
53294;DHT22;39181;53.440;5.644;2023-03-31T16:50:37;11.90;99.90
53294;DHT22;39181;53.440;5.644;2023-03-31T16:53:02;11.90;99.90
53294;DHT22;39181;53.440;5.644;2023-03-31T16:55:29;11.90;99.90
53294;DHT22;39181;53.440;5.644;2023-03-31T16:57:57;11.90;99.90
53294;DHT22;39181;53.440;5.644;2023-03-31T17:00:30;11.90;99.90
53294;DHT22;39181;53.440;5.644;2023-03-31T17:02:56;11.90;99.90
53294;DHT22;39181;53.440;5.644;2023-03-31T17:05:24;11.90;99.90
53294;DHT22;39181;53.440;5.644;2023-03-31T17:07:50;11.80;99.90
53294;DHT22;39181;53.440;5.644;2023-03-31T17:10:15;11.80;99.90
53294;DHT22;39181;53.440;5.644;2023-03-31T17:12:41;11.70;99.90
53294;DHT22;39181;53.440;5.644;2023-03-31T17:15:08;11.70;99.90
53294;DHT22;39181;53.440;5.644;2023-03-31T17:17:34;11.60;99.90
53294;DHT22;39181;53.440;5.644;2023-03-31T17:20:01;11.50;99.90
53294;DHT22;39181;53.440;5.644;2023-03-31T17:22:27;11.50;99.90
53294;DHT22;39181;53.440;5.644;2023-03-31T17:24:52;11.50;99.90
53294;DHT22;39181;53.440;5.644;2023-03-31T17:27:26;11.50;99.90
53294;DHT22;39181;53.440;5.644;2023-03-31T17:29:52;11.40;99.90
53294;DHT22;39181;53.440;5.644;2023-03-31T17:32:18;11.40;99.90
53294;DHT22;39181;53.440;5.644;2023-03-31T17:34:44;11.30;99.90
53294;DHT22;39181;53.440;5.644;2023-03-31T17:37:12;11.30;99.90
53294;DHT22;39181;53.440;5.644;2023-03-31T17:39:38;11.20;99.90
53294;DHT22;39181;53.440;5.644;2023-03-31T17:42:04;11.20;99.90
53294;DHT22;39181;53.440;5.644;2023-03-31T17:44:29;11.20;99.90
53294;DHT22;39181;53.440;5.644;2023-03-31T17:46:55;11.20;99.90
53294;DHT22;39181;53.440;5.644;2023-03-31T17:49:22;11.20;99.90
53294;DHT22;39181;53.440;5.644;2023-03-31T17:51:48;11.10;99.90
53294;DHT22;39181;53.440;5.644;2023-03-31T17:54:14;11.10;99.90
53294;DHT22;39181;53.440;5.644;2023-03-31T17:56:39;11.00;99.90
53294;DHT22;39181;53.440;5.644;2023-03-31T17:59:06;10.90;99.90
53294;DHT22;39181;53.440;5.644;2023-03-31T18:01:31;10.90;99.90
53294;DHT22;39181;53.440;5.644;2023-03-31T18:03:57;10.80;99.90
53294;DHT22;39181;53.440;5.644;2023-03-31T18:06:23;10.80;99.90
53294;DHT22;39181;53.440;5.644;2023-03-31T18:08:49;10.80;99.90
53294;DHT22;39181;53.440;5.644;2023-03-31T18:11:15;10.70;99.90
53294;DHT22;39181;53.440;5.644;2023-03-31T18:13:41;10.60;99.90
53294;DHT22;39181;53.440;5.644;2023-03-31T18:16:08;10.60;99.90
53294;DHT22;39181;53.440;5.644;2023-03-31T18:18:35;10.60;99.90